Time;durP1;ratioP1;P1;durP2;ratioP2;P2;SDS_P1;SDS_P2;PMS_P1;PMS_P2;Temp;Humidity;BMP_temperature;BMP_pressure;BME280_temperature;BME280_humidity;BME280_pressure;Samples;Min_cycle;Max_cycle;Signal;HPM_P1;HPM_P2
2022/05/29 00:01:50;;;;;;;21.90;20.50;;;;;;;;;;5095253;28;20445;-84
2022/05/29 00:04:19;;;;;;;20.43;19.13;;;;;;;;;;5095130;28;20419;-84
2022/05/29 00:06:48;;;;;;;20.80;19.50;;;;;;;;;;5094888;28;20549;-84
2022/05/29 00:09:16;;;;;;;22.07;20.77;;;;;;;;;;5095299;28;20441;-83
2022/05/29 00:11:44;;;;;;;20.23;19.03;;;;;;;;;;5094541;28;20412;-83
2022/05/29 00:14:11;;;;;;;21.03;19.93;;;;;;;;;;5094841;28;20416;-82
2022/05/29 00:16:38;;;;;;;20.43;19.13;;;;;;;;;;5094812;28;20412;-84
2022/05/29 00:19:07;;;;;;;21.47;20.17;;;;;;;;;;5094703;28;20904;-83
2022/05/29 00:21:36;;;;;;;22.07;20.60;;;;;;;;;;5094742;28;20442;-83
2022/05/29 00:24:04;;;;;;;21.60;20.40;;;;;;;;;;5094594;28;20476;-84
2022/05/29 00:26:31;;;;;;;21.33;19.80;;;;;;;;;;5094648;28;20455;-84
2022/05/29 00:28:58;;;;;;;21.03;19.87;;;;;;;;;;5094402;28;20415;-84
2022/05/29 00:31:26;;;;;;;22.50;21.10;;;;;;;;;;5094739;28;20441;-83
2022/05/29 00:33:53;;;;;;;20.53;19.53;;;;;;;;;;5094163;28;20437;-84
2022/05/29 00:36:22;;;;;;;21.23;19.80;;;;;;;;;;5076374;28;20473;-84
2022/05/29 00:38:50;;;;;;;21.60;20.20;;;;;;;;;;5076093;28;20416;-84
2022/05/29 00:41:21;;;;;;;20.43;18.97;;;;;;;;;;5076821;28;20457;-83
2022/05/29 00:44:05;;;;;;;20.73;19.47;;;;;;;;;;5094014;28;20858;-84
2022/05/29 00:46:32;;;;;;;20.87;19.77;;;;;;;;;;5094001;28;20483;-83
2022/05/29 00:49:00;;;;;;;20.90;19.80;;;;;;;;;;5093929;28;20460;-84
2022/05/29 00:51:28;;;;;;;20.73;19.63;;;;;;;;;;5094096;28;20438;-83
2022/05/29 00:53:56;;;;;;;20.63;19.60;;;;;;;;;;5094262;28;20420;-84
2022/05/29 00:56:23;;;;;;;21.07;20.00;;;;;;;;;;5093825;28;20416;-83
2022/05/29 00:58:51;;;;;;;21.23;20.03;;;;;;;;;;5094055;28;20523;-83
2022/05/29 01:01:18;;;;;;;21.67;20.30;;;;;;;;;;5093921;28;20445;-84
2022/05/29 01:03:45;;;;;;;21.30;19.90;;;;;;;;;;5094051;28;20431;-83
2022/05/29 01:06:12;;;;;;;22.60;20.90;;;;;;;;;;5093767;28;20434;-83
2022/05/29 01:08:41;;;;;;;20.90;19.80;;;;;;;;;;5093994;28;20445;-83
2022/05/29 01:11:19;;;;;;;20.90;19.80;;;;;;;;;;5093564;28;20763;-83
2022/05/29 01:13:52;;;;;;;20.80;19.50;;;;;;;;;;5093550;28;20965;-84
2022/05/29 01:16:24;;;;;;;20.40;19.10;;;;;;;;;;5093708;28;20441;-82
2022/05/29 01:18:58;;;;;;;20.30;19.10;;;;;;;;;;5093568;28;20449;-83
2022/05/29 01:21:37;;;;;;;20.93;19.33;;;;;;;;;;5076013;28;20442;-83
2022/05/29 01:24:23;;;;;;;20.97;19.77;;;;;;;;;;5093415;28;20447;-83
2022/05/29 01:27:06;;;;;;;20.77;19.37;;;;;;;;;;5093599;28;20472;-83
2022/05/29 01:29:41;;;;;;;20.83;19.30;;;;;;;;;;5093593;28;20419;-83
2022/05/29 01:32:12;;;;;;;20.27;19.00;;;;;;;;;;5093576;28;20412;-84
2022/05/29 01:34:43;;;;;;;21.53;19.67;;;;;;;;;;5093370;28;20416;-83
2022/05/29 01:37:15;;;;;;;20.63;19.43;;;;;;;;;;5093240;28;20448;-83
2022/05/29 01:39:51;;;;;;;20.37;19.17;;;;;;;;;;5093591;28;20408;-83
2022/05/29 01:42:20;;;;;;;21.53;20.00;;;;;;;;;;5093469;28;20445;-83
2022/05/29 01:44:53;;;;;;;20.47;19.43;;;;;;;;;;5093521;28;20423;-83
2022/05/29 01:47:25;;;;;;;20.57;19.33;;;;;;;;;;5093321;28;20489;-83
2022/05/29 01:49:54;;;;;;;20.87;19.67;;;;;;;;;;5093332;28;20419;-83
2022/05/29 01:52:24;;;;;;;21.37;20.07;;;;;;;;;;5093414;28;20751;-83
2022/05/29 01:54:54;;;;;;;20.90;19.50;;;;;;;;;;5093129;28;20432;-83
2022/05/29 01:57:23;;;;;;;20.10;19.10;;;;;;;;;;5093365;28;20444;-83
2022/05/29 01:59:55;;;;;;;20.60;19.23;;;;;;;;;;5092796;28;20423;-83
2022/05/29 02:02:24;;;;;;;20.40;19.07;;;;;;;;;;5093150;28;20438;-83
2022/05/29 02:04:54;;;;;;;20.97;19.70;;;;;;;;;;5093216;28;20419;-83
2022/05/29 02:10:10;;;;;;;20.57;19.37;;;;;;;;;;5092960;28;20544;-83
2022/05/29 02:12:39;;;;;;;21.13;19.67;;;;;;;;;;5093085;28;20416;-83
2022/05/29 02:15:12;;;;;;;20.50;19.20;;;;;;;;;;5093218;28;20426;-83
2022/05/29 02:17:42;;;;;;;21.33;20.03;;;;;;;;;;5093104;28;20799;-83
2022/05/29 02:20:12;;;;;;;20.37;19.23;;;;;;;;;;5093206;28;20420;-83
2022/05/29 02:22:40;;;;;;;20.33;19.03;;;;;;;;;;5092934;28;20415;-83
2022/05/29 02:25:10;;;;;;;19.80;18.50;;;;;;;;;;5092706;28;20404;-83
2022/05/29 02:27:45;;;;;;;20.33;19.10;;;;;;;;;;5092977;28;20537;-83
2022/05/29 02:30:15;;;;;;;19.97;18.70;;;;;;;;;;5092846;28;20453;-83
2022/05/29 02:32:50;;;;;;;19.73;18.53;;;;;;;;;;5092748;28;20469;-83
2022/05/29 02:35:20;;;;;;;20.30;18.93;;;;;;;;;;5093797;28;20418;-84
2022/05/29 02:37:50;;;;;;;20.37;18.90;;;;;;;;;;5096366;28;20459;-83
2022/05/29 02:40:21;;;;;;;19.73;18.63;;;;;;;;;;5096792;28;20437;-83
2022/05/29 02:42:51;;;;;;;20.17;18.90;;;;;;;;;;5096368;28;20404;-83
2022/05/29 02:45:24;;;;;;;21.30;20.10;;;;;;;;;;5096474;28;20934;-83
2022/05/29 02:47:56;;;;;;;20.43;19.33;;;;;;;;;;5096169;28;20476;-83
2022/05/29 02:50:26;;;;;;;20.77;19.37;;;;;;;;;;5096555;28;20491;-83
2022/05/29 02:52:54;;;;;;;20.30;18.97;;;;;;;;;;5096620;28;20411;-83
2022/05/29 02:55:22;;;;;;;20.40;19.00;;;;;;;;;;5096554;28;20460;-83
2022/05/29 02:57:51;;;;;;;21.70;20.07;;;;;;;;;;5096484;28;20441;-84
2022/05/29 03:00:19;;;;;;;20.30;19.10;;;;;;;;;;5096437;28;20437;-83
2022/05/29 03:02:52;;;;;;;20.13;18.83;;;;;;;;;;5096208;28;20804;-83
2022/05/29 03:05:24;;;;;;;20.43;19.10;;;;;;;;;;5096318;28;20774;-83
2022/05/29 03:07:59;;;;;;;20.60;19.50;;;;;;;;;;5096310;28;20877;-83
2022/05/29 03:10:29;;;;;;;20.40;19.30;;;;;;;;;;5096133;28;20436;-84
2022/05/29 03:12:59;;;;;;;20.87;19.47;;;;;;;;;;5096189;28;20434;-83
2022/05/29 03:15:30;;;;;;;19.70;18.60;;;;;;;;;;5096012;28;20449;-83
2022/05/29 03:18:08;;;;;;;20.50;19.40;;;;;;;;;;5095873;28;20442;-83
2022/05/29 03:20:41;;;;;;;21.40;19.90;;;;;;;;;;5096113;28;20409;-83
2022/05/29 03:23:12;;;;;;;20.43;19.10;;;;;;;;;;5095646;28;20728;-83
2022/05/29 03:25:41;;;;;;;21.00;19.70;;;;;;;;;;5095852;28;20460;-83
2022/05/29 03:28:11;;;;;;;20.63;19.23;;;;;;;;;;5095542;28;20839;-83
2022/05/29 03:30:39;;;;;;;21.00;19.67;;;;;;;;;;5096233;28;20438;-85
2022/05/29 03:33:12;;;;;;;21.00;19.47;;;;;;;;;;5095486;28;20427;-83
2022/05/29 03:35:47;;;;;;;21.40;20.10;;;;;;;;;;5095800;28;20491;-83
2022/05/29 03:38:14;;;;;;;20.50;19.30;;;;;;;;;;5075507;28;20424;-84
2022/05/29 03:40:41;;;;;;;20.50;19.20;;;;;;;;;;5073690;28;20967;-84
2022/05/29 03:43:09;;;;;;;21.70;20.00;;;;;;;;;;5075147;28;20434;-83
2022/05/29 03:45:36;;;;;;;20.43;19.23;;;;;;;;;;5075182;28;20748;-83
2022/05/29 03:48:04;;;;;;;20.90;19.53;;;;;;;;;;5074955;28;20529;-83
2022/05/29 03:50:34;;;;;;;20.17;19.00;;;;;;;;;;5075444;28;20409;-83
2022/05/29 03:53:01;;;;;;;19.93;18.60;;;;;;;;;;5074656;28;20439;-82
2022/05/29 03:55:30;;;;;;;21.13;19.33;;;;;;;;;;5074892;28;20415;-83
2022/05/29 03:57:58;;;;;;;20.47;18.97;;;;;;;;;;5075292;28;20452;-83
2022/05/29 04:00:26;;;;;;;20.63;19.30;;;;;;;;;;5074840;28;20438;-84
2022/05/29 04:02:54;;;;;;;21.47;20.00;;;;;;;;;;5074751;28;20414;-83
2022/05/29 04:05:22;;;;;;;19.33;18.23;;;;;;;;;;5074633;28;20427;-83
2022/05/29 04:13:22;;;;;;;20.50;19.20;;;;;;;;;;5074829;28;20433;-84
2022/05/29 04:15:50;;;;;;;20.97;19.67;;;;;;;;;;5074850;28;20499;-84
2022/05/29 04:18:18;;;;;;;20.67;19.17;;;;;;;;;;5074678;28;20469;-83
2022/05/29 04:20:46;;;;;;;20.23;18.90;;;;;;;;;;5074679;28;20509;-83
2022/05/29 04:23:15;;;;;;;19.93;18.73;;;;;;;;;;5074703;28;20950;-84
2022/05/29 04:25:44;;;;;;;20.40;19.20;;;;;;;;;;5074593;28;20446;-84
2022/05/29 04:28:11;;;;;;;20.50;19.10;;;;;;;;;;5074612;28;20485;-84
2022/05/29 04:30:39;;;;;;;21.20;19.10;;;;;;;;;;5074159;28;20413;-83
2022/05/29 04:33:06;;;;;;;19.40;18.13;;;;;;;;;;5074190;28;20434;-83
2022/05/29 04:35:39;;;;;;;21.93;20.63;;;;;;;;;;5073227;28;20464;-84
2022/05/29 04:38:07;;;;;;;21.50;19.60;;;;;;;;;;5093691;28;20481;-84
2022/05/29 04:40:37;;;;;;;21.23;19.90;;;;;;;;;;5094528;28;20442;-83
2022/05/29 04:43:05;;;;;;;22.50;20.67;;;;;;;;;;5094781;28;20445;-83
2022/05/29 04:45:32;;;;;;;22.53;20.60;;;;;;;;;;5094312;28;20408;-84
2022/05/29 04:48:00;;;;;;;21.27;19.67;;;;;;;;;;5094504;28;20508;-84
2022/05/29 04:50:28;;;;;;;20.93;19.60;;;;;;;;;;5094372;28;20475;-84
2022/05/29 04:52:55;;;;;;;20.90;19.53;;;;;;;;;;5094078;28;20408;-84
2022/05/29 04:55:22;;;;;;;21.00;19.53;;;;;;;;;;5076251;28;20420;-84
2022/05/29 04:57:51;;;;;;;20.73;19.00;;;;;;;;;;5093264;28;20446;-84
2022/05/29 05:00:19;;;;;;;20.73;19.53;;;;;;;;;;5094602;28;20449;-84
2022/05/29 05:02:46;;;;;;;19.97;18.70;;;;;;;;;;5094355;28;20790;-84
2022/05/29 05:05:14;;;;;;;20.90;19.70;;;;;;;;;;5094330;28;20433;-83
2022/05/29 05:07:41;;;;;;;20.40;19.07;;;;;;;;;;5094209;28;20472;-84
2022/05/29 05:10:11;;;;;;;19.70;18.60;;;;;;;;;;5094209;28;20441;-83
2022/05/29 05:12:38;;;;;;;21.47;19.87;;;;;;;;;;5093934;28;20472;-84
2022/05/29 05:15:08;;;;;;;20.93;19.73;;;;;;;;;;5094083;28;20456;-84
2022/05/29 05:17:36;;;;;;;20.90;19.13;;;;;;;;;;5094129;28;20419;-84
2022/05/29 05:20:03;;;;;;;20.20;18.83;;;;;;;;;;5093985;28;20412;-84
2022/05/29 05:22:31;;;;;;;21.93;20.63;;;;;;;;;;5093786;28;20476;-84
2022/05/29 05:24:58;;;;;;;21.80;20.50;;;;;;;;;;5093910;28;20434;-83
2022/05/29 05:27:26;;;;;;;21.50;19.97;;;;;;;;;;5093556;28;20404;-84
2022/05/29 05:29:53;;;;;;;21.30;19.67;;;;;;;;;;5093582;28;20447;-84
2022/05/29 05:32:22;;;;;;;22.33;20.80;;;;;;;;;;5093505;28;20420;-83
2022/05/29 05:34:49;;;;;;;21.33;19.93;;;;;;;;;;5093793;28;20409;-83
2022/05/29 05:37:17;;;;;;;19.80;18.70;;;;;;;;;;5093098;28;20488;-85
2022/05/29 05:39:44;;;;;;;20.43;19.10;;;;;;;;;;5092985;28;20416;-84
2022/05/29 05:42:11;;;;;;;20.17;18.70;;;;;;;;;;5093619;28;20408;-84
2022/05/29 05:44:39;;;;;;;21.63;20.03;;;;;;;;;;5093401;28;20475;-84
2022/05/29 05:47:07;;;;;;;19.90;18.90;;;;;;;;;;5093581;28;20411;-84
2022/05/29 05:49:37;;;;;;;21.03;19.57;;;;;;;;;;5093846;28;20481;-84
2022/05/29 05:52:05;;;;;;;21.80;20.23;;;;;;;;;;5093735;28;20428;-84
2022/05/29 05:54:34;;;;;;;20.67;19.43;;;;;;;;;;5093527;28;20444;-85
2022/05/29 05:57:02;;;;;;;21.60;20.20;;;;;;;;;;5093510;28;20500;-85
2022/05/29 05:59:30;;;;;;;22.60;20.47;;;;;;;;;;5093331;28;20490;-84
2022/05/29 06:01:58;;;;;;;21.10;19.63;;;;;;;;;;5093265;28;20874;-84
2022/05/29 06:04:25;;;;;;;21.00;19.57;;;;;;;;;;5093168;28;20534;-84
2022/05/29 06:06:54;;;;;;;20.83;19.50;;;;;;;;;;5093639;28;20434;-84
2022/05/29 06:09:23;;;;;;;20.40;19.20;;;;;;;;;;5093779;28;20524;-85
2022/05/29 06:11:51;;;;;;;20.60;19.10;;;;;;;;;;5097317;28;20799;-83
2022/05/29 06:14:18;;;;;;;20.83;19.10;;;;;;;;;;5097228;28;20447;-85
2022/05/29 06:16:45;;;;;;;20.40;19.13;;;;;;;;;;5097441;28;20433;-84
2022/05/29 06:19:13;;;;;;;23.00;21.37;;;;;;;;;;5097186;28;20820;-85
2022/05/29 06:21:41;;;;;;;19.87;18.67;;;;;;;;;;5097532;28;20438;-83
2022/05/29 06:24:09;;;;;;;21.17;19.67;;;;;;;;;;5096913;28;20991;-85
2022/05/29 06:26:37;;;;;;;20.50;19.30;;;;;;;;;;5097180;28;20845;-85
2022/05/29 06:29:04;;;;;;;21.37;20.00;;;;;;;;;;5097227;28;20456;-84
2022/05/29 06:31:31;;;;;;;20.53;19.43;;;;;;;;;;5097261;28;20800;-83
2022/05/29 06:33:59;;;;;;;20.50;19.10;;;;;;;;;;5097082;28;20889;-85
2022/05/29 06:36:27;;;;;;;20.50;19.30;;;;;;;;;;5097336;28;20462;-85
2022/05/29 06:38:55;;;;;;;20.33;19.03;;;;;;;;;;5097014;28;20535;-84
2022/05/29 06:41:25;;;;;;;20.77;19.37;;;;;;;;;;5096637;28;20416;-84
2022/05/29 06:43:53;;;;;;;20.87;19.50;;;;;;;;;;5096642;28;20422;-85
2022/05/29 06:46:20;;;;;;;20.63;19.50;;;;;;;;;;5096640;28;20412;-84
2022/05/29 06:48:48;;;;;;;21.10;19.80;;;;;;;;;;5096493;28;20444;-85
2022/05/29 06:51:19;;;;;;;21.60;20.00;;;;;;;;;;5096607;28;20448;-85
2022/05/29 06:53:48;;;;;;;22.00;20.10;;;;;;;;;;5096592;28;20416;-85
2022/05/29 06:56:16;;;;;;;20.50;19.20;;;;;;;;;;5096526;28;20468;-84
2022/05/29 06:58:44;;;;;;;21.33;19.83;;;;;;;;;;5096190;28;20446;-85
2022/05/29 07:07:01;;;;;;;22.23;20.60;;;;;;;;;;5096440;28;20413;-85
2022/05/29 07:09:29;;;;;;;21.33;19.53;;;;;;;;;;5096523;28;20451;-85
2022/05/29 07:11:58;;;;;;;20.50;19.40;;;;;;;;;;5096271;28;20448;-84
2022/05/29 07:14:26;;;;;;;20.90;19.60;;;;;;;;;;5096270;28;20408;-84
2022/05/29 07:16:54;;;;;;;20.83;18.97;;;;;;;;;;5096180;28;20944;-84
2022/05/29 07:19:24;;;;;;;21.43;19.40;;;;;;;;;;5096182;28;20431;-84
2022/05/29 07:21:52;;;;;;;20.30;18.80;;;;;;;;;;5095340;28;20437;-84
2022/05/29 07:24:20;;;;;;;20.47;19.17;;;;;;;;;;5095949;28;21010;-84
2022/05/29 07:26:47;;;;;;;20.47;18.90;;;;;;;;;;5095902;28;20434;-84
2022/05/29 07:29:17;;;;;;;20.80;19.10;;;;;;;;;;5095946;28;20485;-85
2022/05/29 07:31:46;;;;;;;19.10;18.00;;;;;;;;;;5095919;28;20462;-84
2022/05/29 07:34:13;;;;;;;19.53;18.57;;;;;;;;;;5095587;28;20416;-84
2022/05/29 07:36:40;;;;;;;20.60;19.40;;;;;;;;;;5095850;28;20798;-84
2022/05/29 07:39:09;;;;;;;20.73;19.40;;;;;;;;;;5095670;28;20408;-85
2022/05/29 07:44:21;;;;;;;19.50;18.37;;;;;;;;;;5096021;28;20415;-84
2022/05/29 07:46:50;;;;;;;20.60;19.30;;;;;;;;;;5077471;28;20935;-84
2022/05/29 07:49:17;;;;;;;21.20;19.60;;;;;;;;;;5095610;28;20819;-84
2022/05/29 07:51:45;;;;;;;19.73;18.53;;;;;;;;;;5095258;28;20441;-85
2022/05/29 07:54:12;;;;;;;21.57;19.87;;;;;;;;;;5096013;28;20465;-84
2022/05/29 07:56:39;;;;;;;20.07;18.90;;;;;;;;;;5095363;28;20464;-84
2022/05/29 07:59:07;;;;;;;20.13;19.00;;;;;;;;;;5095234;28;20458;-84
2022/05/29 08:01:34;;;;;;;19.90;18.90;;;;;;;;;;5095407;28;20454;-85
2022/05/29 08:04:03;;;;;;;21.53;20.00;;;;;;;;;;5094979;28;20433;-84
2022/05/29 08:06:30;;;;;;;20.63;19.33;;;;;;;;;;5095413;28;20824;-84
2022/05/29 08:08:58;;;;;;;21.73;20.03;;;;;;;;;;5095487;28;20455;-84
2022/05/29 08:11:25;;;;;;;21.20;20.10;;;;;;;;;;5094593;28;20437;-84
2022/05/29 08:13:53;;;;;;;22.07;20.37;;;;;;;;;;5094963;28;20874;-85
2022/05/29 08:16:20;;;;;;;22.57;20.93;;;;;;;;;;5095061;28;20441;-84
2022/05/29 08:18:48;;;;;;;22.50;20.87;;;;;;;;;;5094907;28;20449;-85
2022/05/29 08:21:16;;;;;;;22.00;20.70;;;;;;;;;;5095027;28;20823;-86
2022/05/29 08:30:37;;;;;;;22.73;21.37;;;;;;;;;;5094670;28;20439;-84
2022/05/29 08:32:09;;;;;;;21.30;19.90;;;;;;;;;;5012987;28;21133;-85
2022/05/29 08:34:36;;;;;;;24.30;22.80;;;;;;;;;;5012871;28;20416;-85
2022/05/29 08:37:05;;;;;;;21.77;20.47;;;;;;;;;;5012875;28;20471;-86
2022/05/29 08:39:35;;;;;;;21.43;20.03;;;;;;;;;;5013223;28;20461;-87
2022/05/29 08:42:03;;;;;;;21.77;20.27;;;;;;;;;;5012900;28;20437;-84
2022/05/29 08:44:32;;;;;;;20.90;19.70;;;;;;;;;;5012934;28;20436;-85
2022/05/29 08:47:02;;;;;;;20.40;19.30;;;;;;;;;;5012604;28;20434;-85
2022/05/29 08:49:31;;;;;;;20.27;19.07;;;;;;;;;;5012493;28;21057;-85
2022/05/29 08:52:02;;;;;;;22.67;20.90;;;;;;;;;;5012731;28;20445;-85
2022/05/29 08:54:37;;;;;;;22.10;20.60;;;;;;;;;;5012766;28;20452;-85
2022/05/29 08:57:11;;;;;;;21.00;19.70;;;;;;;;;;5012807;28;20507;-86
2022/05/29 08:59:45;;;;;;;20.20;19.10;;;;;;;;;;5012671;28;20427;-85
2022/05/29 09:02:14;;;;;;;19.07;18.17;;;;;;;;;;5012495;28;20446;-84
2022/05/29 09:04:45;;;;;;;20.10;18.80;;;;;;;;;;5036857;28;20881;-85
2022/05/29 09:07:15;;;;;;;19.20;18.10;;;;;;;;;;5094441;28;20475;-87
2022/05/29 09:09:47;;;;;;;19.77;18.57;;;;;;;;;;5094154;28;20485;-86
2022/05/29 09:12:17;;;;;;;19.93;18.83;;;;;;;;;;5094353;28;20819;-86
2022/05/29 09:14:48;;;;;;;20.33;19.23;;;;;;;;;;5094904;28;20774;-87
2022/05/29 09:17:20;;;;;;;19.97;18.87;;;;;;;;;;5094408;28;20808;-86
2022/05/29 09:19:49;;;;;;;19.70;18.53;;;;;;;;;;5094823;28;20482;-86
2022/05/29 09:22:20;;;;;;;18.97;17.77;;;;;;;;;;5094617;28;20443;-87
2022/05/29 09:24:52;;;;;;;19.40;18.27;;;;;;;;;;5094526;28;20426;-86
2022/05/29 09:27:19;;;;;;;19.97;18.87;;;;;;;;;;5095070;28;20857;-87
2022/05/29 09:29:47;;;;;;;20.23;18.97;;;;;;;;;;5094415;28;20456;-86
2022/05/29 09:32:16;;;;;;;20.63;19.40;;;;;;;;;;5094206;28;20441;-86
2022/05/29 09:34:44;;;;;;;20.00;18.80;;;;;;;;;;5093945;28;20412;-85
2022/05/29 09:37:16;;;;;;;20.43;19.17;;;;;;;;;;5093985;28;20477;-86
2022/05/29 09:39:45;;;;;;;19.30;18.20;;;;;;;;;;5094036;28;20420;-86
2022/05/29 09:42:16;;;;;;;20.47;19.47;;;;;;;;;;5093758;28;20408;-86
2022/05/29 09:45:03;;;;;;;21.20;20.00;;;;;;;;;;5093009;28;20491;-85
2022/05/29 09:50:15;;;;;;;21.73;20.30;;;;;;;;;;5049321;28;20862;-85
2022/05/29 09:52:44;;;;;;;23.17;21.87;;;;;;;;;;5093534;28;20438;-84
2022/05/29 09:55:21;;;;;;;21.70;20.50;;;;;;;;;;5093479;28;20445;-85
2022/05/29 09:57:53;;;;;;;23.20;21.90;;;;;;;;;;5093646;28;20452;-85
2022/05/29 10:00:26;;;;;;;23.00;21.40;;;;;;;;;;5093380;28;20490;-85
2022/05/29 10:02:54;;;;;;;22.20;20.90;;;;;;;;;;5093415;28;20499;-85
2022/05/29 10:05:24;;;;;;;96.47;79.57;;;;;;;;;;5093672;28;20423;-85
2022/05/29 10:07:52;;;;;;;29.53;27.27;;;;;;;;;;5093516;28;20415;-85
2022/05/29 10:10:30;;;;;;;25.80;24.10;;;;;;;;;;5093390;28;20512;-86
2022/05/29 10:13:00;;;;;;;23.07;21.77;;;;;;;;;;5093384;28;20433;-87
2022/05/29 10:15:39;;;;;;;22.30;20.90;;;;;;;;;;5094054;28;20815;-87
2022/05/29 10:18:12;;;;;;;20.90;19.40;;;;;;;;;;5093622;28;20408;-87
2022/05/29 10:20:40;;;;;;;20.00;18.77;;;;;;;;;;5094495;28;20430;-87
2022/05/29 10:23:09;;;;;;;20.13;18.90;;;;;;;;;;5094136;28;20444;-86
2022/05/29 10:25:39;;;;;;;19.40;18.20;;;;;;;;;;5093875;28;20441;-88
2022/05/29 10:28:11;;;;;;;20.37;19.00;;;;;;;;;;5094822;28;20420;-87
2022/05/29 10:30:43;;;;;;;20.20;19.10;;;;;;;;;;5093912;28;20477;-88
2022/05/29 10:33:11;;;;;;;20.00;18.73;;;;;;;;;;5096669;28;20420;-92
2022/05/29 10:35:39;;;;;;;19.40;18.30;;;;;;;;;;5098217;28;20428;-88
2022/05/29 10:38:15;;;;;;;19.50;18.40;;;;;;;;;;5079509;28;20534;-92
2022/05/29 10:40:43;;;;;;;19.03;17.93;;;;;;;;;;5100168;28;20437;-91
2022/05/29 10:43:13;;;;;;;20.20;19.00;;;;;;;;;;5094917;28;20788;-91
2022/05/29 10:45:44;;;;;;;19.23;18.00;;;;;;;;;;5094601;28;20917;-91
2022/05/29 10:48:26;;;;;;;21.10;19.70;;;;;;;;;;5095050;28;20417;-92
2022/05/29 10:51:09;;;;;;;20.10;18.90;;;;;;;;;;5073199;28;20490;-91
2022/05/29 10:53:56;;;;;;;19.30;18.10;;;;;;;;;;5074681;28;20417;-93
2022/05/29 10:56:29;;;;;;;18.93;17.93;;;;;;;;;;5074619;28;20413;-91
2022/05/29 10:59:06;;;;;;;19.10;18.10;;;;;;;;;;5077685;28;20511;-92
2022/05/29 11:04:37;;;;;;;21.60;19.90;;;;;;;;;;5043764;28;20417;-91
2022/05/29 11:07:12;;;;;;;19.40;18.30;;;;;;;;;;5077209;28;20413;-91
2022/05/29 11:09:48;;;;;;;19.60;18.10;;;;;;;;;;5077078;28;20469;-90
2022/05/29 11:12:19;;;;;;;19.63;18.63;;;;;;;;;;5076979;28;20462;-89
2022/05/29 11:15:04;;;;;;;19.73;18.60;;;;;;;;;;5077114;28;20442;-89
2022/05/29 11:17:37;;;;;;;20.10;18.73;;;;;;;;;;5078184;28;20409;-89
2022/05/29 11:20:13;;;;;;;19.40;18.30;;;;;;;;;;5076667;28;20424;-89
2022/05/29 11:22:45;;;;;;;20.10;18.87;;;;;;;;;;5077034;28;20473;-90
2022/05/29 11:25:16;;;;;;;18.93;17.83;;;;;;;;;;5059306;28;20450;-90
2022/05/29 11:27:51;;;;;;;20.40;19.00;;;;;;;;;;5076753;28;20417;-90
2022/05/29 11:30:25;;;;;;;20.03;18.60;;;;;;;;;;5076683;28;20452;-89
2022/05/29 11:33:18;;;;;;;20.27;19.07;;;;;;;;;;5076899;28;20406;-89
2022/05/29 11:35:53;;;;;;;18.53;17.63;;;;;;;;;;5058955;28;20947;-89
2022/05/29 11:38:47;;;;;;;19.13;18.03;;;;;;;;;;5057053;28;20435;-89
2022/05/29 11:41:17;;;;;;;19.27;18.17;;;;;;;;;;4997197;28;20494;-90
2022/05/29 11:43:49;;;;;;;20.10;18.73;;;;;;;;;;4995695;28;20942;-89
2022/05/29 11:51:55;;;;;;;19.40;18.30;;;;;;;;;;4994780;28;20449;-90
2022/05/29 11:54:25;;;;;;;18.67;17.67;;;;;;;;;;4979006;28;20413;-89
2022/05/29 11:56:55;;;;;;;19.43;18.30;;;;;;;;;;4994942;28;20596;-88
2022/05/29 11:59:24;;;;;;;20.17;18.97;;;;;;;;;;4995457;28;20461;-89
2022/05/29 12:01:59;;;;;;;18.87;17.87;;;;;;;;;;4994985;28;20457;-88
2022/05/29 12:04:31;;;;;;;18.40;17.40;;;;;;;;;;4994343;28;20440;-89
2022/05/29 12:07:04;;;;;;;18.50;17.33;;;;;;;;;;4994260;28;20438;-89
2022/05/29 12:09:35;;;;;;;19.10;17.90;;;;;;;;;;4995187;28;20442;-90
2022/05/29 12:12:06;;;;;;;18.77;17.77;;;;;;;;;;4994693;28;20834;-88
2022/05/29 12:14:35;;;;;;;18.87;17.33;;;;;;;;;;4994480;28;20439;-91
2022/05/29 12:17:09;;;;;;;19.73;18.50;;;;;;;;;;5026183;28;20870;-86
2022/05/29 12:19:39;;;;;;;18.93;17.93;;;;;;;;;;5055493;28;20414;-88
2022/05/29 12:22:08;;;;;;;19.03;17.83;;;;;;;;;;5055975;28;20964;-87
2022/05/29 12:24:37;;;;;;;18.63;17.63;;;;;;;;;;5055126;28;20455;-88
2022/05/29 12:27:07;;;;;;;19.20;18.20;;;;;;;;;;5054969;28;20462;-88
2022/05/29 12:29:36;;;;;;;18.50;17.43;;;;;;;;;;5055640;28;20915;-87
2022/05/29 12:32:08;;;;;;;19.00;17.70;;;;;;;;;;5055000;28;20425;-88
2022/05/29 12:34:41;;;;;;;19.20;18.00;;;;;;;;;;5054930;28;20904;-86
2022/05/29 12:37:20;;;;;;;18.60;17.60;;;;;;;;;;5066440;28;20551;-87
2022/05/29 12:40:11;;;;;;;19.00;18.00;;;;;;;;;;5076353;28;20404;-86
2022/05/29 12:42:54;;;;;;;18.30;17.27;;;;;;;;;;5076842;28;20413;-87
2022/05/29 12:45:31;;;;;;;18.40;17.40;;;;;;;;;;5076640;28;20916;-86
2022/05/29 12:48:08;;;;;;;18.40;17.50;;;;;;;;;;5076252;28;20442;-86
2022/05/29 12:50:46;;;;;;;20.07;18.60;;;;;;;;;;5076289;28;20453;-86
2022/05/29 12:53:21;;;;;;;19.13;18.03;;;;;;;;;;5077277;28;20417;-86
2022/05/29 12:55:56;;;;;;;18.70;17.70;;;;;;;;;;5077068;28;20420;-86
2022/05/29 12:58:34;;;;;;;18.60;17.70;;;;;;;;;;5077150;28;20453;-86
2022/05/29 13:01:23;;;;;;;19.67;18.47;;;;;;;;;;5077185;28;20579;-87
2022/05/29 13:04:11;;;;;;;18.77;17.77;;;;;;;;;;5075656;28;20796;-84
2022/05/29 13:06:50;;;;;;;19.23;18.07;;;;;;;;;;5070127;28;20421;-87
2022/05/29 13:09:26;;;;;;;18.60;17.60;;;;;;;;;;5077250;28;20438;-87
2022/05/29 13:11:57;;;;;;;19.63;18.43;;;;;;;;;;5077236;28;20485;-90
2022/05/29 13:14:26;;;;;;;20.67;19.40;;;;;;;;;;5080022;28;20869;-90
2022/05/29 13:20:01;;;;;;;20.03;18.83;;;;;;;;;;5112854;22;21038;-89
2022/05/29 13:22:47;;;;;;;20.57;19.17;;;;;;;;;;5099604;28;20469;-88
2022/05/29 13:25:16;;;;;;;21.83;20.30;;;;;;;;;;5095978;28;20453;-87
2022/05/29 13:27:44;;;;;;;20.83;19.63;;;;;;;;;;5097091;28;20420;-86
2022/05/29 13:30:32;;;;;;;20.43;19.20;;;;;;;;;;5096625;28;20961;-86
2022/05/29 13:33:14;;;;;;;21.10;19.70;;;;;;;;;;5095858;28;20430;-87
2022/05/29 13:35:44;;;;;;;19.50;18.50;;;;;;;;;;5096009;28;20453;-87
2022/05/29 13:38:11;;;;;;;20.37;19.27;;;;;;;;;;5095736;28;20437;-87
2022/05/29 13:40:48;;;;;;;20.27;18.97;;;;;;;;;;5096303;28;20426;-87
2022/05/29 13:43:34;;;;;;;20.00;18.90;;;;;;;;;;5096359;28;20451;-87
2022/05/29 13:46:07;;;;;;;19.57;18.53;;;;;;;;;;5096069;28;20770;-87
2022/05/29 13:48:54;;;;;;;20.17;18.97;;;;;;;;;;5096600;28;20449;-87
2022/05/29 13:51:26;;;;;;;18.97;17.97;;;;;;;;;;5095332;28;20862;-87
2022/05/29 13:53:59;;;;;;;20.80;19.40;;;;;;;;;;5095742;28;20499;-87
2022/05/29 13:56:45;;;;;;;19.90;18.70;;;;;;;;;;5094419;28;20416;-87
2022/05/29 14:04:52;;;;;;;20.10;19.00;;;;;;;;;;5095286;28;20421;-87
2022/05/29 14:07:21;;;;;;;20.47;19.30;;;;;;;;;;5095892;28;20770;-88
2022/05/29 14:10:04;;;;;;;20.43;19.07;;;;;;;;;;5096779;28;20566;-88
2022/05/29 14:12:52;;;;;;;20.20;19.00;;;;;;;;;;5096563;28;20429;-88
2022/05/29 14:15:31;;;;;;;19.27;18.17;;;;;;;;;;5095815;28;20440;-87
2022/05/29 14:18:02;;;;;;;19.97;18.60;;;;;;;;;;5095805;28;20511;-87
2022/05/29 14:20:33;;;;;;;20.10;18.97;;;;;;;;;;5095475;28;20511;-87
2022/05/29 14:23:10;;;;;;;19.93;18.83;;;;;;;;;;5096439;28;21012;-86
2022/05/29 14:25:44;;;;;;;19.33;18.23;;;;;;;;;;5095615;28;20408;-88
2022/05/29 14:28:27;;;;;;;19.47;18.43;;;;;;;;;;5095323;28;20445;-86
2022/05/29 14:31:05;;;;;;;19.90;18.70;;;;;;;;;;5096439;28;20478;-86
2022/05/29 14:34:02;;;;;;;19.60;18.40;;;;;;;;;;5101097;28;20433;-93
2022/05/29 14:36:36;;;;;;;18.83;17.73;;;;;;;;;;5098406;28;20436;-85
2022/05/29 14:39:21;;;;;;;19.03;17.87;;;;;;;;;;5098173;28;20419;-86
2022/05/29 14:41:49;;;;;;;19.27;18.27;;;;;;;;;;5087968;28;20464;-86
2022/05/29 14:44:26;;;;;;;18.77;17.57;;;;;;;;;;5097706;28;20404;-81
2022/05/29 14:47:05;;;;;;;18.83;17.83;;;;;;;;;;5096138;28;20407;-80
2022/05/29 14:49:47;;;;;;;18.37;17.33;;;;;;;;;;5093853;28;20423;-89
2022/05/29 14:52:18;;;;;;;19.77;18.57;;;;;;;;;;5097239;28;20482;-86
2022/05/29 14:54:48;;;;;;;19.60;18.27;;;;;;;;;;5097212;28;20451;-86
2022/05/29 14:57:21;;;;;;;19.80;18.57;;;;;;;;;;5097536;28;20420;-87
2022/05/29 14:59:48;;;;;;;19.80;18.70;;;;;;;;;;5080077;28;20865;-85
2022/05/29 15:02:24;;;;;;;19.47;17.70;;;;;;;;;;5097272;28;20424;-87
2022/05/29 15:04:52;;;;;;;19.17;18.13;;;;;;;;;;5097141;28;20512;-86
2022/05/29 15:12:57;;;;;;;18.90;18.00;;;;;;;;;;5097280;28;20407;-87
2022/05/29 15:15:26;;;;;;;19.13;18.13;;;;;;;;;;5097701;28;20419;-86
2022/05/29 15:18:07;;;;;;;19.33;18.33;;;;;;;;;;5097640;28;20408;-86
2022/05/29 15:26:14;;;;;;;18.80;17.80;;;;;;;;;;5096671;28;20450;-86
2022/05/29 15:28:44;;;;;;;19.90;18.73;;;;;;;;;;5096936;28;20441;-86
2022/05/29 15:31:13;;;;;;;20.67;19.33;;;;;;;;;;5096453;28;20448;-86
2022/05/29 15:33:48;;;;;;;20.03;18.83;;;;;;;;;;5097742;28;20437;-87